createdAt,value
2019-06-20T06:00:32.190Z,19.90
2019-06-20T06:01:32.156Z,19.88
2019-06-20T06:02:32.125Z,19.93
2019-06-20T06:03:32.145Z,19.88
2019-06-20T06:04:32.087Z,19.84
2019-06-20T06:05:32.144Z,19.83
2019-06-20T06:06:32.065Z,19.78
2019-06-20T06:07:34.786Z,19.79
2019-06-20T06:08:32.081Z,19.86
2019-06-20T06:09:32.057Z,19.79
2019-06-20T06:10:32.024Z,19.76
2019-06-20T06:11:32.026Z,19.79
2019-06-20T06:12:39.548Z,19.84
2019-06-20T06:13:32.054Z,19.88
2019-06-20T06:14:31.975Z,19.88
2019-06-20T06:15:39.523Z,19.84
2019-06-20T06:16:31.956Z,19.93
2019-06-20T06:17:39.494Z,19.91
2019-06-20T06:18:31.958Z,19.93
2019-06-20T06:19:31.953Z,19.93
2019-06-20T06:20:31.912Z,19.98
2019-06-20T06:21:31.934Z,19.93
2019-06-20T06:22:31.891Z,19.95
2019-06-20T06:23:31.934Z,19.97
2019-06-20T06:24:31.870Z,19.98
2019-06-20T06:25:31.947Z,20.02
2019-06-20T06:26:31.925Z,20.05
2019-06-20T06:27:31.870Z,19.98
2019-06-20T06:28:31.833Z,19.93
2019-06-20T06:29:31.847Z,20.02
2019-06-20T06:30:31.806Z,19.98
2019-06-20T06:31:33.419Z,19.90
2019-06-20T06:32:39.926Z,19.94
2019-06-20T06:33:32.772Z,19.94
2019-06-20T06:34:33.233Z,20.08
2019-06-20T06:35:31.794Z,20.02
2019-06-20T06:36:31.783Z,19.98
2019-06-20T06:37:31.728Z,19.93
2019-06-20T06:38:31.732Z,19.95
2019-06-20T06:39:31.757Z,19.95
2019-06-20T06:40:31.698Z,19.94
2019-06-20T06:41:31.710Z,20.02
2019-06-20T06:42:31.719Z,20.05
2019-06-20T06:43:31.667Z,20.06
2019-06-20T06:44:31.931Z,20.06
2019-06-20T06:45:31.653Z,20.15
2019-06-20T06:46:43.727Z,20.27
2019-06-20T06:47:32.629Z,20.13
2019-06-20T06:48:31.638Z,20.24
2019-06-20T06:49:31.634Z,20.10
2019-06-20T06:50:31.607Z,20.18
2019-06-20T06:51:31.584Z,20.24
2019-06-20T06:52:31.571Z,20.35
2019-06-20T06:53:31.610Z,20.31
2019-06-20T06:54:31.552Z,20.31
2019-06-20T06:55:31.625Z,20.25
2019-06-20T06:56:31.588Z,20.30
2019-06-20T06:57:31.517Z,20.31
2019-06-20T06:58:31.505Z,20.24
2019-06-20T06:59:31.496Z,20.35
2019-06-20T07:00:31.505Z,20.35
2019-06-20T07:01:31.502Z,20.35
2019-06-20T07:02:31.485Z,20.38
2019-06-20T07:03:31.451Z,20.47
2019-06-20T07:04:31.495Z,20.42
2019-06-20T07:05:31.431Z,20.46
2019-06-20T07:06:31.432Z,20.53
2019-06-20T07:07:31.419Z,20.58
2019-06-20T07:08:31.398Z,20.59
2019-06-20T07:09:31.443Z,20.61
2019-06-20T07:10:31.406Z,20.58
2019-06-20T07:11:31.368Z,20.58
2019-06-20T07:12:31.359Z,20.65
2019-06-20T07:13:31.360Z,20.59
2019-06-20T07:14:31.369Z,20.51
2019-06-20T07:15:31.323Z,20.56
2019-06-20T07:16:31.316Z,20.62
2019-06-20T07:17:31.307Z,20.72
2019-06-20T07:18:31.345Z,20.72
2019-06-20T07:19:31.327Z,20.72
2019-06-20T07:20:31.321Z,20.71
2019-06-20T07:21:31.277Z,20.83
2019-06-20T07:22:31.248Z,20.79
2019-06-20T07:23:31.265Z,20.96
2019-06-20T07:24:31.257Z,20.95
2019-06-20T07:25:31.224Z,21.08
2019-06-20T07:26:31.210Z,21.05
2019-06-20T07:27:31.200Z,21.06
2019-06-20T07:28:31.248Z,21.14
2019-06-20T07:29:31.191Z,21.14
2019-06-20T07:30:31.215Z,21.13
2019-06-20T07:31:31.154Z,21.16
2019-06-20T07:32:31.160Z,21.11
2019-06-20T07:33:31.137Z,21.14
2019-06-20T07:34:31.830Z,21.13
2019-06-20T07:35:31.162Z,21.09
2019-06-20T07:36:31.120Z,21.11
2019-06-20T07:37:31.090Z,21.11
2019-06-20T07:38:31.114Z,21.23
2019-06-20T07:39:31.070Z,21.21
2019-06-20T07:40:31.089Z,21.32
2019-06-20T07:41:31.050Z,21.34
2019-06-20T07:42:31.041Z,21.38
2019-06-20T07:43:31.067Z,21.50
2019-06-20T07:44:31.021Z,21.59
2019-06-20T07:45:31.057Z,21.54
2019-06-20T07:46:30.994Z,21.53
2019-06-20T07:47:30.987Z,21.66
2019-06-20T07:48:30.979Z,21.71
2019-06-20T07:49:30.999Z,21.64
2019-06-20T07:50:30.963Z,21.72
2019-06-20T07:51:31.003Z,21.75
2019-06-20T07:52:30.937Z,21.71
2019-06-20T07:53:31.016Z,21.79
2019-06-20T07:54:30.943Z,21.72
2019-06-20T07:55:30.908Z,21.79
2019-06-20T07:56:30.922Z,21.83
2019-06-20T07:57:30.878Z,21.98
2019-06-20T07:58:30.882Z,22.01
2019-06-20T07:59:30.893Z,22.16
2019-06-20T08:00:30.887Z,22.14
2019-06-20T08:01:30.854Z,22.17
2019-06-20T08:02:30.828Z,22.17
2019-06-20T08:03:30.838Z,22.23
2019-06-20T08:04:30.842Z,22.32
2019-06-20T08:05:30.811Z,22.14
2019-06-20T08:06:30.827Z,22.09
2019-06-20T08:07:30.780Z,21.99
2019-06-20T08:08:30.765Z,21.81
2019-06-20T08:09:44.321Z,21.76
2019-06-20T08:10:31.768Z,21.76
2019-06-20T08:11:30.738Z,21.82
2019-06-20T08:12:30.766Z,21.83
2019-06-20T08:13:30.711Z,21.90
2019-06-20T08:14:30.695Z,21.97
2019-06-20T08:15:30.718Z,21.92
2019-06-20T08:16:30.691Z,21.95
2019-06-20T08:17:35.267Z,22.02
2019-06-20T08:18:31.658Z,22.06
2019-06-20T08:19:30.635Z,22.12
2019-06-20T08:20:30.716Z,22.13
2019-06-20T08:21:30.641Z,22.09
2019-06-20T08:22:30.620Z,22.07
2019-06-20T08:23:30.623Z,22.10
2019-06-20T08:24:30.593Z,22.12
2019-06-20T08:25:30.670Z,22.14
2019-06-20T08:26:30.566Z,22.17
2019-06-20T08:27:30.584Z,22.17
2019-06-20T08:28:30.542Z,22.09
2019-06-20T08:29:30.535Z,22.02
2019-06-20T08:30:30.552Z,22.07
2019-06-20T08:31:30.558Z,22.01
2019-06-20T08:32:30.504Z,22.02
2019-06-20T08:33:30.533Z,22.20
2019-06-20T08:34:30.476Z,22.16
2019-06-20T08:35:30.463Z,22.17
2019-06-20T08:36:30.459Z,22.04
2019-06-20T08:37:30.453Z,22.06
2019-06-20T08:38:30.481Z,22.17
2019-06-20T08:39:30.430Z,22.19
2019-06-20T08:40:30.411Z,22.23
2019-06-20T08:41:30.678Z,22.20
2019-06-20T08:42:30.440Z,22.23
2019-06-20T08:43:30.426Z,22.25
2019-06-20T08:44:30.400Z,22.23
2019-06-20T08:45:30.513Z,22.32
2019-06-20T08:46:30.368Z,22.37
2019-06-20T08:47:30.393Z,22.35
2019-06-20T08:48:30.366Z,22.37
2019-06-20T08:49:30.352Z,22.43
2019-06-20T08:50:30.301Z,22.52
2019-06-20T08:51:30.321Z,22.54
2019-06-20T08:52:30.279Z,22.60
2019-06-20T08:53:30.310Z,22.64
2019-06-20T08:54:30.259Z,22.71
2019-06-20T08:55:30.255Z,22.72
2019-06-20T08:56:30.262Z,22.74
2019-06-20T08:57:30.237Z,22.74
2019-06-20T08:58:30.275Z,22.67
2019-06-20T08:59:30.209Z,22.78
2019-06-20T09:00:30.221Z,22.82
2019-06-20T09:01:30.193Z,22.82
2019-06-20T09:02:30.180Z,22.82
2019-06-20T09:03:30.239Z,22.87
2019-06-20T09:04:30.186Z,22.92
2019-06-20T09:05:30.928Z,22.97
2019-06-20T09:06:30.150Z,23.07
2019-06-20T09:07:30.122Z,23.17
2019-06-20T09:08:30.165Z,23.31
2019-06-20T09:09:30.094Z,23.34
2019-06-20T09:10:30.104Z,23.35
2019-06-20T09:11:30.095Z,23.32
2019-06-20T09:12:30.087Z,23.29
2019-06-20T09:13:30.076Z,23.35
2019-06-20T09:14:30.099Z,23.27
2019-06-20T09:15:30.035Z,23.22
2019-06-20T09:16:30.022Z,23.05
2019-06-20T09:17:30.014Z,23.09
2019-06-20T09:18:30.020Z,23.04
2019-06-20T09:19:30.491Z,23.05
2019-06-20T09:20:29.976Z,23.02
2019-06-20T09:21:29.968Z,23.02
2019-06-20T09:22:29.962Z,23.01
2019-06-20T09:23:29.944Z,23.09
2019-06-20T09:24:29.979Z,23.09
2019-06-20T09:25:29.926Z,23.11
2019-06-20T09:26:29.908Z,23.07
2019-06-20T09:27:29.904Z,23.08
2019-06-20T09:28:29.936Z,23.09
2019-06-20T09:29:41.327Z,23.09
2019-06-20T09:30:30.876Z,23.23
2019-06-20T09:31:29.857Z,23.32
2019-06-20T09:32:37.451Z,23.31
2019-06-20T09:33:29.834Z,23.27
2019-06-20T09:34:29.862Z,23.34
2019-06-20T09:35:29.813Z,23.19
2019-06-20T09:36:29.815Z,23.14
2019-06-20T09:37:29.793Z,23.12
2019-06-20T09:38:29.805Z,23.02
2019-06-20T09:39:29.770Z,23.01
2019-06-20T09:40:29.811Z,22.94
2019-06-20T09:41:29.750Z,22.92
2019-06-20T09:42:29.770Z,22.93
2019-06-20T09:43:29.750Z,22.86
2019-06-20T09:44:29.741Z,22.86
2019-06-20T09:45:29.743Z,22.82
2019-06-20T09:46:29.742Z,22.77
2019-06-20T09:47:29.689Z,22.82
2019-06-20T09:48:29.778Z,22.75
2019-06-20T09:49:29.685Z,22.75
2019-06-20T09:50:29.659Z,22.87
2019-06-20T09:51:29.632Z,22.92
2019-06-20T09:52:29.629Z,22.92
2019-06-20T09:53:37.183Z,22.97
2019-06-20T09:54:29.618Z,23.07
2019-06-20T09:55:29.598Z,23.09
2019-06-20T09:56:29.640Z,23.07
2019-06-20T09:57:29.608Z,22.97
2019-06-20T09:58:29.640Z,22.99
2019-06-20T09:59:29.600Z,23.01
2019-06-20T10:00:29.581Z,23.05
2019-06-20T10:01:29.540Z,22.96
2019-06-20T10:02:29.573Z,22.96
2019-06-20T10:03:29.520Z,23.09
2019-06-20T10:04:29.559Z,23.15
2019-06-20T10:05:29.518Z,23.22
2019-06-20T10:06:29.574Z,23.24
2019-06-20T10:07:29.462Z,23.39
2019-06-20T10:08:29.476Z,23.52
2019-06-20T10:09:29.560Z,23.61
2019-06-20T10:10:29.471Z,23.60
2019-06-20T10:11:29.474Z,23.70
2019-06-20T10:12:29.438Z,23.68
2019-06-20T10:13:32.553Z,23.76
2019-06-20T10:14:29.401Z,23.67
2019-06-20T10:15:29.426Z,23.64
2019-06-20T10:16:42.430Z,23.60
2019-06-20T10:17:30.365Z,23.61
2019-06-20T10:18:29.363Z,23.67
2019-06-20T10:19:29.369Z,23.58
2019-06-20T10:20:29.351Z,23.55
2019-06-20T10:21:29.356Z,23.58
2019-06-20T10:22:29.302Z,23.60
2019-06-20T10:23:29.289Z,23.55
2019-06-20T10:24:29.324Z,23.61
2019-06-20T10:25:29.275Z,23.64
2019-06-20T10:26:29.304Z,23.65
2019-06-20T10:27:29.258Z,23.76
2019-06-20T10:28:29.240Z,23.77
2019-06-20T10:29:29.272Z,23.71
2019-06-20T10:30:29.225Z,23.76
2019-06-20T10:31:29.235Z,23.80
2019-06-20T10:32:29.256Z,23.80
2019-06-20T10:33:29.285Z,23.80
2019-06-20T10:34:31.130Z,23.80
2019-06-20T10:35:29.234Z,23.80
2019-06-20T10:36:29.177Z,23.79
2019-06-20T10:37:29.163Z,23.86
2019-06-20T10:38:29.183Z,23.85
2019-06-20T10:39:29.160Z,23.83
2019-06-20T10:40:29.118Z,23.82
2019-06-20T10:41:29.181Z,23.75
2019-06-20T10:42:29.118Z,23.92
2019-06-20T10:43:29.115Z,23.83
2019-06-20T10:44:29.078Z,23.82
2019-06-20T10:45:29.362Z,23.90
2019-06-20T10:46:29.085Z,23.80
2019-06-20T10:47:34.993Z,23.79
2019-06-20T10:48:30.027Z,23.80
2019-06-20T10:49:29.040Z,23.76
2019-06-20T10:50:29.027Z,23.71
2019-06-20T10:51:28.987Z,23.79
2019-06-20T10:52:28.995Z,23.72
2019-06-20T10:53:29.018Z,23.85
2019-06-20T10:54:28.953Z,23.87
2019-06-20T10:55:28.978Z,23.80
2019-06-20T10:56:28.979Z,23.89
2019-06-20T10:57:28.976Z,23.89
2019-06-20T10:58:28.950Z,23.87
2019-06-20T10:59:28.905Z,24.01
2019-06-20T11:00:31.754Z,24.00
2019-06-20T11:01:28.921Z,24.02
2019-06-20T11:02:28.903Z,24.08
2019-06-20T11:03:28.894Z,24.14
2019-06-20T11:04:28.922Z,24.12
2019-06-20T11:05:28.865Z,24.14
2019-06-20T11:06:28.825Z,24.26
2019-06-20T11:07:28.816Z,24.23
2019-06-20T11:08:28.833Z,24.31
2019-06-20T11:09:28.785Z,24.31
2019-06-20T11:10:28.797Z,24.26
2019-06-20T11:11:28.804Z,24.22
2019-06-20T11:12:42.577Z,24.12
2019-06-20T11:13:29.743Z,24.07
2019-06-20T11:14:28.788Z,23.98
2019-06-20T11:15:28.780Z,23.87
2019-06-20T11:16:28.721Z,23.87
2019-06-20T11:17:28.704Z,23.85
2019-06-20T11:18:28.758Z,23.80
2019-06-20T11:19:28.708Z,23.83
2019-06-20T11:20:28.672Z,23.85
2019-06-20T11:21:28.670Z,23.89
2019-06-20T11:22:28.654Z,23.92
2019-06-20T11:23:28.644Z,23.80
2019-06-20T11:24:28.708Z,23.80
2019-06-20T11:25:28.634Z,23.83
2019-06-20T11:26:28.644Z,23.75
2019-06-20T11:27:28.640Z,23.80
2019-06-20T11:28:28.591Z,23.83
2019-06-20T11:29:28.569Z,23.71
2019-06-20T11:30:28.594Z,23.79
2019-06-20T11:31:28.578Z,23.71
2019-06-20T11:32:28.584Z,23.65
2019-06-20T11:33:28.560Z,23.55
2019-06-20T11:34:28.530Z,23.50
2019-06-20T11:35:28.612Z,23.55
2019-06-20T11:36:28.552Z,23.52
2019-06-20T11:37:28.483Z,23.39
2019-06-20T11:38:28.473Z,23.34
2019-06-20T11:39:28.481Z,23.40
2019-06-20T11:40:28.535Z,23.42
2019-06-20T11:41:28.473Z,23.43
2019-06-20T11:42:28.445Z,23.39
2019-06-20T11:43:28.436Z,23.40
2019-06-20T11:44:28.462Z,23.42
2019-06-20T11:45:28.470Z,23.29
2019-06-20T11:46:28.411Z,23.34
2019-06-20T11:47:28.383Z,23.34
2019-06-20T11:48:28.383Z,23.29
2019-06-20T11:49:28.385Z,23.31
2019-06-20T11:50:28.369Z,23.29
2019-06-20T11:51:28.360Z,23.35
2019-06-20T11:52:28.334Z,23.38
2019-06-20T11:53:28.309Z,23.43
2019-06-20T11:54:28.320Z,23.39
2019-06-20T11:55:28.358Z,23.39
2019-06-20T11:56:28.314Z,23.45
2019-06-20T11:57:28.282Z,23.45
2019-06-20T11:58:28.258Z,23.57
2019-06-20T11:59:28.274Z,23.50
2019-06-20T12:00:28.340Z,23.57
2019-06-20T12:01:32.927Z,23.58
2019-06-20T12:02:29.217Z,23.61
2019-06-20T12:03:28.231Z,23.67
2019-06-20T12:04:28.197Z,23.60
2019-06-20T12:05:28.189Z,23.55
2019-06-20T12:06:28.193Z,23.55
2019-06-20T12:07:28.215Z,23.55
2019-06-20T12:08:28.202Z,23.58
2019-06-20T12:09:28.200Z,23.60
2019-06-20T12:10:28.134Z,23.60
2019-06-20T12:11:28.116Z,23.67
2019-06-20T12:12:28.138Z,23.65
2019-06-20T12:13:28.096Z,23.70
2019-06-20T12:14:28.106Z,23.70
2019-06-20T12:15:28.073Z,23.72
2019-06-20T12:16:28.065Z,23.64
2019-06-20T12:17:28.073Z,23.61
2019-06-20T12:18:28.055Z,23.71
2019-06-20T12:19:28.038Z,23.68
2019-06-20T12:20:28.066Z,23.72
2019-06-20T12:21:28.008Z,23.68
2019-06-20T12:22:28.003Z,23.62
2019-06-20T12:23:28.047Z,23.64
2019-06-20T12:24:28.101Z,23.58
2019-06-20T12:25:28.463Z,23.60
2019-06-20T12:26:27.953Z,23.55
2019-06-20T12:27:27.997Z,23.58
2019-06-20T12:28:27.949Z,23.61
2019-06-20T12:29:27.982Z,23.53
2019-06-20T12:30:27.969Z,23.49
2019-06-20T12:31:27.896Z,23.46
2019-06-20T12:32:27.900Z,23.42
2019-06-20T12:33:27.920Z,23.45
2019-06-20T12:34:27.916Z,23.42
2019-06-20T12:35:27.864Z,23.39
2019-06-20T12:36:27.849Z,23.42
2019-06-20T12:37:27.844Z,23.34
2019-06-20T12:38:27.837Z,23.42
2019-06-20T12:39:27.892Z,23.42
2019-06-20T12:40:35.372Z,23.35
2019-06-20T12:41:27.817Z,23.49
2019-06-20T12:42:27.814Z,23.38
2019-06-20T12:43:27.797Z,23.45
2019-06-20T12:44:27.795Z,23.39
2019-06-20T12:45:27.750Z,23.42
2019-06-20T12:46:27.756Z,23.46
2019-06-20T12:47:27.726Z,23.47
2019-06-20T12:48:27.780Z,23.42
2019-06-20T12:49:27.705Z,23.43
2019-06-20T12:50:27.689Z,23.42
2019-06-20T12:51:27.713Z,23.42
2019-06-20T12:52:27.667Z,23.39
2019-06-20T12:53:27.688Z,23.32
2019-06-20T12:54:30.156Z,23.24
2019-06-20T12:55:27.654Z,23.27
2019-06-20T12:56:27.665Z,23.34
2019-06-20T12:57:27.632Z,23.31
2019-06-20T12:58:27.613Z,23.20
2019-06-20T12:59:27.633Z,23.07
2019-06-20T13:00:27.583Z,23.05
2019-06-20T13:01:39.180Z,23.08
2019-06-20T13:02:28.559Z,23.04
2019-06-20T13:03:27.551Z,22.94
2019-06-20T13:04:27.570Z,22.89
2019-06-20T13:05:27.536Z,22.87
2019-06-20T13:06:27.514Z,22.72
2019-06-20T13:07:27.595Z,22.62
2019-06-20T13:08:27.498Z,22.57
2019-06-20T13:09:35.056Z,22.49
2019-06-20T13:10:27.508Z,22.50
2019-06-20T13:11:27.463Z,22.44
2019-06-20T13:12:27.495Z,22.41
2019-06-20T13:13:27.505Z,22.17
2019-06-20T13:14:27.459Z,21.85
2019-06-20T13:15:27.466Z,21.66
2019-06-20T13:16:27.452Z,21.46
2019-06-20T13:17:27.397Z,21.35
2019-06-20T13:18:27.386Z,21.06
2019-06-20T13:19:27.385Z,20.98
2019-06-20T13:20:27.397Z,20.81
2019-06-20T13:21:27.357Z,20.68
2019-06-20T13:22:27.363Z,20.61
2019-06-20T13:23:27.338Z,20.49
2019-06-20T13:24:27.320Z,20.31
2019-06-20T13:25:27.340Z,20.28
2019-06-20T13:26:27.323Z,20.16
2019-06-20T13:27:27.287Z,20.02
2019-06-20T13:28:27.302Z,19.93
2019-06-20T13:29:27.273Z,19.90
2019-06-20T13:30:27.272Z,19.66
2019-06-20T13:31:27.257Z,19.51
2019-06-20T13:32:27.273Z,19.48
2019-06-20T13:33:27.265Z,19.43
2019-06-20T13:34:27.221Z,19.33
2019-06-20T13:35:27.217Z,19.33
2019-06-20T13:36:27.252Z,19.32
2019-06-20T13:37:27.181Z,19.33
2019-06-20T13:38:27.177Z,19.32
2019-06-20T13:39:27.168Z,19.31
2019-06-20T13:40:27.169Z,19.24
2019-06-20T13:41:27.177Z,19.31
2019-06-20T13:42:27.134Z,19.38
2019-06-20T13:43:27.132Z,19.32
2019-06-20T13:44:27.116Z,19.32
2019-06-20T13:45:27.118Z,19.36
2019-06-20T13:46:27.154Z,19.40
2019-06-20T13:47:27.077Z,19.47
2019-06-20T13:48:27.080Z,19.53
2019-06-20T13:49:27.054Z,19.50
2019-06-20T13:50:27.073Z,19.55
2019-06-20T13:51:27.048Z,19.66
2019-06-20T13:52:27.069Z,19.73
2019-06-20T13:53:27.013Z,19.72
2019-06-20T13:54:27.009Z,19.70
2019-06-20T13:55:27.025Z,19.72
2019-06-20T13:56:26.981Z,19.79
2019-06-20T13:57:27.048Z,19.88
2019-06-20T13:58:26.970Z,19.94
2019-06-20T13:59:26.956Z,19.88
2019-06-20T14:00:26.939Z,19.98
2019-06-20T14:01:26.982Z,19.93
2019-06-20T14:02:26.948Z,20.00
2019-06-20T14:03:26.910Z,20.00
2019-06-20T14:04:26.893Z,20.00
2019-06-20T14:05:26.883Z,19.94
2019-06-20T14:06:26.918Z,19.94
2019-06-20T14:07:26.888Z,19.98
2019-06-20T14:08:26.863Z,19.97
2019-06-20T14:09:26.840Z,20.06
2019-06-20T14:10:26.870Z,19.95
2019-06-20T14:11:26.856Z,19.93
2019-06-20T14:12:26.840Z,19.91
2019-06-20T14:13:26.801Z,19.94
2019-06-20T14:14:26.807Z,19.94
2019-06-20T14:15:26.775Z,19.84
2019-06-20T14:16:26.789Z,19.91
2019-06-20T14:17:26.764Z,19.94
2019-06-20T14:18:26.772Z,19.90
2019-06-20T14:19:26.799Z,19.93
2019-06-20T14:20:26.745Z,19.90
2019-06-20T14:21:26.714Z,19.91
2019-06-20T14:22:26.701Z,19.84
2019-06-20T14:23:26.746Z,19.86
2019-06-20T14:24:26.680Z,19.88
2019-06-20T14:25:26.694Z,19.84
2019-06-20T14:26:34.230Z,19.91
2019-06-20T14:27:26.665Z,19.93
2019-06-20T14:28:26.660Z,19.97
2019-06-20T14:29:26.636Z,19.98
2019-06-20T14:30:26.617Z,19.95
2019-06-20T14:31:26.603Z,19.95
2019-06-20T14:32:26.608Z,19.91
2019-06-20T14:33:26.689Z,19.98
2019-06-20T14:34:26.573Z,19.94
2019-06-20T14:35:26.561Z,20.00
2019-06-20T14:36:26.597Z,20.05
2019-06-20T14:37:26.542Z,20.12
2019-06-20T14:38:26.584Z,20.18
2019-06-20T14:39:26.548Z,20.27
2019-06-20T14:40:26.539Z,20.25
2019-06-20T14:41:26.508Z,20.38
2019-06-20T14:42:26.487Z,20.25
2019-06-20T14:43:26.523Z,20.25
2019-06-20T14:44:26.492Z,20.20
2019-06-20T14:45:26.457Z,20.33
2019-06-20T14:46:26.447Z,20.30
2019-06-20T14:47:26.436Z,20.24
2019-06-20T14:48:26.451Z,20.25
2019-06-20T14:49:26.496Z,20.24
2019-06-20T14:50:26.459Z,20.25
2019-06-20T14:51:26.393Z,20.09
2019-06-20T14:52:26.422Z,20.09
2019-06-20T14:53:26.418Z,20.02
2019-06-20T14:54:26.394Z,19.97
2019-06-20T14:55:26.353Z,19.93
2019-06-20T14:56:26.385Z,19.91
2019-06-20T14:57:26.329Z,19.76
2019-06-20T14:58:26.315Z,19.68
2019-06-20T14:59:26.351Z,19.68
2019-06-20T15:00:26.329Z,19.63
2019-06-20T15:01:26.349Z,19.63
2019-06-20T15:02:37.862Z,19.58
2019-06-20T15:03:27.300Z,19.57
2019-06-20T15:04:26.286Z,19.50
2019-06-20T15:05:26.300Z,19.47
2019-06-20T15:06:26.231Z,19.48
2019-06-20T15:07:26.242Z,19.50
2019-06-20T15:08:26.221Z,19.42
2019-06-20T15:09:26.237Z,19.48
2019-06-20T15:10:26.198Z,19.40
2019-06-20T15:11:26.205Z,19.43
2019-06-20T15:12:26.196Z,19.43
2019-06-20T15:13:26.181Z,19.39
2019-06-20T15:14:26.217Z,19.40
2019-06-20T15:15:26.137Z,19.51
2019-06-20T15:16:26.130Z,19.46
2019-06-20T15:17:26.132Z,19.55
2019-06-20T15:18:26.105Z,19.54
2019-06-20T15:19:26.123Z,19.58
2019-06-20T15:20:26.085Z,19.58
2019-06-20T15:21:26.127Z,19.69
2019-06-20T15:22:26.078Z,19.73
2019-06-20T15:23:26.088Z,19.75
2019-06-20T15:24:26.091Z,19.78
2019-06-20T15:25:26.058Z,19.79
2019-06-20T15:26:26.058Z,19.87
2019-06-20T15:27:26.069Z,19.87
2019-06-20T15:28:25.987Z,19.90
2019-06-20T15:29:33.645Z,19.87
2019-06-20T15:30:26.072Z,19.98
2019-06-20T15:31:25.961Z,20.06
2019-06-20T15:32:25.964Z,19.97
2019-06-20T15:33:25.961Z,19.94
2019-06-20T15:34:25.952Z,19.95
2019-06-20T15:35:25.947Z,19.93
2019-06-20T15:36:25.938Z,19.95
2019-06-20T15:37:25.943Z,19.91
2019-06-20T15:38:25.921Z,19.98
2019-06-20T15:39:25.895Z,19.98
2019-06-20T15:40:25.909Z,20.02
2019-06-20T15:41:25.974Z,19.93
2019-06-20T15:42:25.852Z,20.00
2019-06-20T15:43:25.839Z,20.02
2019-06-20T15:44:25.833Z,20.02
2019-06-20T15:45:25.875Z,20.08
2019-06-20T15:46:25.877Z,20.15
2019-06-20T15:47:25.798Z,20.16
2019-06-20T15:48:25.780Z,20.12
2019-06-20T15:49:25.775Z,20.15
2019-06-20T15:50:25.802Z,20.13
2019-06-20T15:51:25.833Z,20.13
2019-06-20T15:52:25.738Z,20.18
2019-06-20T15:53:25.731Z,20.18
2019-06-20T15:54:25.711Z,20.25
2019-06-20T15:55:25.709Z,20.23
2019-06-20T15:56:25.758Z,20.21
2019-06-20T15:57:25.718Z,20.23
2019-06-20T15:58:33.249Z,20.30
2019-06-20T15:59:25.682Z,20.28
2019-06-20T16:00:25.694Z,20.31
2019-06-20T16:01:25.681Z,20.25
2019-06-20T16:02:25.667Z,20.28
2019-06-20T16:03:25.639Z,20.24
2019-06-20T16:04:25.641Z,20.21
2019-06-20T16:05:25.646Z,20.27
2019-06-20T16:06:25.589Z,20.25
2019-06-20T16:07:27.158Z,20.27
2019-06-20T16:08:25.565Z,20.24
2019-06-20T16:09:25.585Z,20.33
2019-06-20T16:10:25.563Z,20.28
2019-06-20T16:11:25.803Z,20.27
2019-06-20T16:12:25.523Z,20.31
2019-06-20T16:13:25.521Z,20.35
2019-06-20T16:14:25.722Z,20.38
2019-06-20T16:15:25.494Z,20.34
2019-06-20T16:16:25.514Z,20.35
2019-06-20T16:17:25.490Z,20.42
2019-06-20T16:18:25.458Z,20.35
2019-06-20T16:19:25.488Z,20.34
2019-06-20T16:20:25.435Z,20.38
2019-06-20T16:21:25.426Z,20.41
2019-06-20T16:22:25.459Z,20.47
2019-06-20T16:23:25.433Z,20.43
2019-06-20T16:24:25.494Z,20.49
2019-06-20T16:25:25.394Z,20.49
2019-06-20T16:26:25.384Z,20.49
2019-06-20T16:27:25.362Z,20.47
2019-06-20T16:28:25.441Z,20.47
2019-06-20T16:29:25.340Z,20.47
2019-06-20T16:30:25.360Z,20.50
2019-06-20T16:31:27.031Z,20.47
2019-06-20T16:32:25.343Z,20.34
2019-06-20T16:33:25.922Z,20.39
2019-06-20T16:34:25.289Z,20.42
2019-06-20T16:35:25.277Z,20.50
2019-06-20T16:36:25.332Z,20.47
2019-06-20T16:37:25.285Z,20.49
2019-06-20T16:38:25.243Z,20.46
2019-06-20T16:39:25.238Z,20.49
2019-06-20T16:40:25.249Z,20.50
2019-06-20T16:41:25.250Z,20.54
2019-06-20T16:42:25.221Z,20.59
2019-06-20T16:43:25.221Z,20.62
2019-06-20T16:44:25.190Z,20.56
2019-06-20T16:45:25.173Z,20.65
2019-06-20T16:46:25.182Z,20.64
2019-06-20T16:47:25.185Z,20.64
2019-06-20T16:48:25.185Z,20.65
2019-06-20T16:49:25.133Z,20.66
2019-06-20T16:50:25.156Z,20.69
2019-06-20T16:51:25.102Z,20.72
2019-06-20T16:52:25.127Z,20.64
2019-06-20T16:53:25.092Z,20.66
2019-06-20T16:54:25.104Z,20.65
2019-06-20T16:55:25.092Z,20.62
2019-06-20T16:56:25.084Z,20.65
2019-06-20T16:57:25.048Z,20.65
2019-06-20T16:58:25.035Z,20.66
2019-06-20T16:59:25.143Z,20.65
2019-06-20T17:00:25.017Z,20.65
2019-06-20T17:01:25.070Z,20.68
2019-06-20T17:02:25.004Z,20.68
2019-06-20T17:03:38.052Z,20.77
2019-06-20T17:04:26.057Z,20.83
2019-06-20T17:05:25.008Z,20.83
2019-06-20T17:06:24.950Z,20.77
2019-06-20T17:07:24.954Z,20.87
2019-06-20T17:08:24.936Z,20.86
2019-06-20T17:09:24.921Z,20.84
2019-06-20T17:10:24.982Z,20.99
2019-06-20T17:11:24.895Z,21.09
2019-06-20T17:12:24.893Z,21.13
2019-06-20T17:13:24.899Z,21.06
2019-06-20T17:14:24.890Z,21.09
2019-06-20T17:15:24.933Z,21.06
2019-06-20T17:16:24.844Z,21.09
2019-06-20T17:17:24.864Z,21.09
2019-06-20T17:18:24.830Z,21.14
2019-06-20T17:19:24.811Z,21.09
2019-06-20T17:20:24.806Z,21.08
2019-06-20T17:21:24.789Z,21.11
2019-06-20T17:22:24.808Z,21.19
2019-06-20T17:23:24.795Z,21.34
2019-06-20T17:24:24.759Z,21.46
2019-06-20T17:25:24.783Z,21.59
2019-06-20T17:26:24.780Z,21.71
2019-06-20T17:27:24.781Z,21.76
2019-06-20T17:28:24.793Z,21.54
2019-06-20T17:29:24.716Z,21.48
2019-06-20T17:30:24.693Z,21.53
2019-06-20T17:31:24.723Z,21.50
2019-06-20T17:32:24.697Z,21.48
2019-06-20T17:33:24.662Z,21.45
2019-06-20T17:34:24.681Z,21.45
2019-06-20T17:35:24.686Z,21.51
2019-06-20T17:36:24.656Z,21.48
2019-06-20T17:37:24.708Z,21.42
2019-06-20T17:38:24.612Z,21.45
2019-06-20T17:39:24.803Z,21.51
2019-06-20T17:40:24.589Z,21.63
2019-06-20T17:41:24.578Z,21.82
2019-06-20T17:42:24.579Z,21.99
2019-06-20T17:43:24.595Z,22.02
2019-06-20T17:44:27.338Z,22.14
2019-06-20T17:45:24.549Z,22.29
2019-06-20T17:46:24.538Z,22.32
2019-06-20T17:47:24.553Z,22.28
2019-06-20T17:48:24.533Z,22.35
2019-06-20T17:49:24.507Z,22.41
2019-06-20T17:50:25.879Z,22.39
2019-06-20T17:51:24.481Z,22.50
2019-06-20T17:52:24.497Z,22.50
2019-06-20T17:53:24.487Z,22.41
2019-06-20T17:54:24.444Z,22.37
2019-06-20T17:55:24.467Z,22.41
2019-06-20T17:56:24.439Z,22.37
2019-06-20T17:57:24.411Z,22.39
2019-06-20T17:58:24.430Z,22.34
2019-06-20T17:59:24.389Z,22.22
2019-06-20T18:00:24.405Z,22.14
2019-06-20T18:01:24.402Z,22.13
2019-06-20T18:02:24.358Z,22.09
2019-06-20T18:03:24.366Z,22.02
2019-06-20T18:04:26.778Z,22.10
2019-06-20T18:05:24.402Z,21.99
2019-06-20T18:06:24.341Z,22.01
2019-06-20T18:07:24.437Z,21.97
2019-06-20T18:08:24.293Z,21.92
2019-06-20T18:09:31.900Z,21.88
2019-06-20T18:10:24.330Z,21.90
2019-06-20T18:11:24.258Z,21.79
2019-06-20T18:12:24.250Z,21.76
2019-06-20T18:13:24.254Z,21.71
2019-06-20T18:14:24.249Z,21.67
2019-06-20T18:15:24.262Z,21.74
2019-06-20T18:16:25.513Z,21.71
2019-06-20T18:17:24.199Z,21.71
2019-06-20T18:18:24.234Z,21.64
2019-06-20T18:19:24.205Z,21.66
2019-06-20T18:20:24.185Z,21.64
2019-06-20T18:21:24.233Z,21.67
2019-06-20T18:22:24.140Z,21.67
2019-06-20T18:23:24.144Z,21.56
2019-06-20T18:24:24.147Z,21.46
2019-06-20T18:25:24.128Z,21.50
2019-06-20T18:26:24.141Z,21.51
2019-06-20T18:27:24.093Z,21.41
2019-06-20T18:28:24.124Z,21.45
2019-06-20T18:29:24.070Z,21.46
2019-06-20T18:30:24.056Z,21.34
2019-06-20T18:31:24.100Z,21.41
2019-06-20T18:32:24.056Z,21.45
2019-06-20T18:33:24.078Z,21.42
2019-06-20T18:34:29.932Z,21.44
2019-06-20T18:35:25.014Z,21.38
2019-06-20T18:36:24.018Z,21.38
2019-06-20T18:37:31.409Z,21.36
2019-06-20T18:38:24.982Z,21.38
2019-06-20T18:39:23.961Z,21.45
2019-06-20T18:40:24.022Z,21.42
2019-06-20T18:41:24.014Z,21.39
2019-06-20T18:42:23.992Z,21.42
2019-06-20T18:43:23.982Z,21.50
2019-06-20T18:44:23.945Z,21.38
2019-06-20T18:45:23.899Z,21.42
2019-06-20T18:46:23.930Z,21.36
2019-06-20T18:47:23.975Z,21.41
2019-06-20T18:48:23.870Z,21.44
2019-06-20T18:49:23.883Z,21.45
2019-06-20T18:50:23.846Z,21.38
2019-06-20T18:51:23.897Z,21.41
2019-06-20T18:52:23.860Z,21.39